sensor_id;sensor_type;location;lat;lon;timestamp;P1;durP1;ratioP1;P2;durP2;ratioP2
67065;SDS011;53978;43.846;25.952;2024-03-02T00:00:29;8.85;;;3.38;;
67065;SDS011;53978;43.846;25.952;2024-03-02T00:03:13;6.68;;;3.13;;
67065;SDS011;53978;43.846;25.952;2024-03-02T00:05:39;12.68;;;3.75;;
67065;SDS011;53978;43.846;25.952;2024-03-02T00:08:14;12.43;;;3.22;;
67065;SDS011;53978;43.846;25.952;2024-03-02T00:11:01;13.75;;;4.05;;
67065;SDS011;53978;43.846;25.952;2024-03-02T00:13:35;10.98;;;3.88;;
67065;SDS011;53978;43.846;25.952;2024-03-02T00:16:02;11.20;;;3.70;;
67065;SDS011;53978;43.846;25.952;2024-03-02T00:18:35;13.48;;;3.58;;
67065;SDS011;53978;43.846;25.952;2024-03-02T00:21:03;7.72;;;3.33;;
67065;SDS011;53978;43.846;25.952;2024-03-02T00:23:34;7.22;;;3.58;;
67065;SDS011;53978;43.846;25.952;2024-03-02T00:26:00;13.27;;;4.05;;
67065;SDS011;53978;43.846;25.952;2024-03-02T00:28:26;6.32;;;3.78;;
67065;SDS011;53978;43.846;25.952;2024-03-02T00:31:10;8.65;;;3.35;;
67065;SDS011;53978;43.846;25.952;2024-03-02T00:33:39;7.03;;;3.67;;
67065;SDS011;53978;43.846;25.952;2024-03-02T00:36:08;5.75;;;3.45;;
67065;SDS011;53978;43.846;25.952;2024-03-02T00:38:42;8.52;;;4.00;;
67065;SDS011;53978;43.846;25.952;2024-03-02T00:41:07;14.13;;;4.60;;
67065;SDS011;53978;43.846;25.952;2024-03-02T00:46:35;8.20;;;3.33;;
67065;SDS011;53978;43.846;25.952;2024-03-02T00:49:04;5.55;;;3.45;;
67065;SDS011;53978;43.846;25.952;2024-03-02T00:51:37;6.88;;;3.35;;
67065;SDS011;53978;43.846;25.952;2024-03-02T00:54:07;7.82;;;3.67;;
67065;SDS011;53978;43.846;25.952;2024-03-02T00:56:35;10.93;;;4.15;;
67065;SDS011;53978;43.846;25.952;2024-03-02T00:59:01;10.02;;;3.60;;
67065;SDS011;53978;43.846;25.952;2024-03-02T01:01:29;9.48;;;3.80;;
67065;SDS011;53978;43.846;25.952;2024-03-02T01:03:55;9.32;;;3.67;;
67065;SDS011;53978;43.846;25.952;2024-03-02T01:06:20;7.80;;;3.15;;
67065;SDS011;53978;43.846;25.952;2024-03-02T01:08:50;5.63;;;3.05;;
67065;SDS011;53978;43.846;25.952;2024-03-02T01:11:16;8.38;;;3.78;;
67065;SDS011;53978;43.846;25.952;2024-03-02T01:13:45;8.43;;;3.80;;
67065;SDS011;53978;43.846;25.952;2024-03-02T01:16:11;8.38;;;4.05;;
67065;SDS011;53978;43.846;25.952;2024-03-02T01:18:39;13.13;;;4.60;;
67065;SDS011;53978;43.846;25.952;2024-03-02T01:21:09;15.43;;;5.07;;
67065;SDS011;53978;43.846;25.952;2024-03-02T01:23:35;10.57;;;4.13;;
67065;SDS011;53978;43.846;25.952;2024-03-02T01:26:00;12.10;;;4.47;;
67065;SDS011;53978;43.846;25.952;2024-03-02T01:28:30;13.40;;;4.55;;
67065;SDS011;53978;43.846;25.952;2024-03-02T01:30:56;9.85;;;3.80;;
67065;SDS011;53978;43.846;25.952;2024-03-02T01:33:24;11.68;;;3.97;;
67065;SDS011;53978;43.846;25.952;2024-03-02T01:35:51;12.20;;;3.50;;
67065;SDS011;53978;43.846;25.952;2024-03-02T01:38:17;6.57;;;3.65;;
67065;SDS011;53978;43.846;25.952;2024-03-02T01:40:45;7.75;;;3.05;;
67065;SDS011;53978;43.846;25.952;2024-03-02T01:43:13;5.97;;;3.22;;
67065;SDS011;53978;43.846;25.952;2024-03-02T01:45:39;8.13;;;4.50;;
67065;SDS011;53978;43.846;25.952;2024-03-02T01:48:05;7.90;;;4.53;;
67065;SDS011;53978;43.846;25.952;2024-03-02T01:50:35;12.77;;;4.57;;
67065;SDS011;53978;43.846;25.952;2024-03-02T01:53:01;6.68;;;4.90;;
67065;SDS011;53978;43.846;25.952;2024-03-02T01:55:29;12.30;;;4.90;;
67065;SDS011;53978;43.846;25.952;2024-03-02T01:57:55;9.20;;;4.63;;
67065;SDS011;53978;43.846;25.952;2024-03-02T02:00:23;8.95;;;5.38;;
67065;SDS011;53978;43.846;25.952;2024-03-02T02:02:58;10.15;;;5.40;;
67065;SDS011;53978;43.846;25.952;2024-03-02T02:05:23;12.05;;;5.53;;
67065;SDS011;53978;43.846;25.952;2024-03-02T02:07:49;15.35;;;4.78;;
67065;SDS011;53978;43.846;25.952;2024-03-02T02:10:14;10.05;;;5.22;;
67065;SDS011;53978;43.846;25.952;2024-03-02T02:13:00;8.65;;;4.63;;
67065;SDS011;53978;43.846;25.952;2024-03-02T02:15:33;11.40;;;5.05;;
67065;SDS011;53978;43.846;25.952;2024-03-02T02:18:02;9.93;;;5.03;;
67065;SDS011;53978;43.846;25.952;2024-03-02T02:20:31;9.77;;;5.45;;
67065;SDS011;53978;43.846;25.952;2024-03-02T02:23:02;13.63;;;5.53;;
67065;SDS011;53978;43.846;25.952;2024-03-02T02:25:30;11.93;;;5.82;;
67065;SDS011;53978;43.846;25.952;2024-03-02T02:27:56;9.18;;;5.10;;
67065;SDS011;53978;43.846;25.952;2024-03-02T02:30:23;13.63;;;6.07;;
67065;SDS011;53978;43.846;25.952;2024-03-02T02:32:52;10.38;;;6.05;;
67065;SDS011;53978;43.846;25.952;2024-03-02T02:35:19;13.02;;;7.05;;
67065;SDS011;53978;43.846;25.952;2024-03-02T02:37:47;11.60;;;5.95;;
67065;SDS011;53978;43.846;25.952;2024-03-02T02:40:22;10.18;;;5.22;;
67065;SDS011;53978;43.846;25.952;2024-03-02T02:42:48;10.30;;;5.70;;
67065;SDS011;53978;43.846;25.952;2024-03-02T02:45:14;12.25;;;5.22;;
67065;SDS011;53978;43.846;25.952;2024-03-02T02:47:45;9.57;;;5.03;;
67065;SDS011;53978;43.846;25.952;2024-03-02T02:50:11;8.85;;;4.95;;
67065;SDS011;53978;43.846;25.952;2024-03-02T02:52:37;11.02;;;5.38;;
67065;SDS011;53978;43.846;25.952;2024-03-02T02:55:05;7.70;;;4.65;;
67065;SDS011;53978;43.846;25.952;2024-03-02T02:57:32;8.10;;;4.65;;
67065;SDS011;53978;43.846;25.952;2024-03-02T03:00:06;7.32;;;3.97;;
67065;SDS011;53978;43.846;25.952;2024-03-02T03:02:35;10.80;;;4.70;;
67065;SDS011;53978;43.846;25.952;2024-03-02T03:05:01;8.27;;;4.28;;
67065;SDS011;53978;43.846;25.952;2024-03-02T03:07:27;10.40;;;3.78;;
67065;SDS011;53978;43.846;25.952;2024-03-02T03:09:52;7.30;;;4.38;;
67065;SDS011;53978;43.846;25.952;2024-03-02T03:12:18;8.70;;;4.10;;
67065;SDS011;53978;43.846;25.952;2024-03-02T03:14:47;9.75;;;5.60;;
67065;SDS011;53978;43.846;25.952;2024-03-02T03:17:13;14.15;;;5.15;;
67065;SDS011;53978;43.846;25.952;2024-03-02T03:19:39;13.55;;;5.07;;
67065;SDS011;53978;43.846;25.952;2024-03-02T03:22:05;10.80;;;5.95;;
67065;SDS011;53978;43.846;25.952;2024-03-02T03:24:35;8.77;;;4.45;;
67065;SDS011;53978;43.846;25.952;2024-03-02T03:27:01;13.48;;;5.53;;
67065;SDS011;53978;43.846;25.952;2024-03-02T03:29:26;14.40;;;6.40;;
67065;SDS011;53978;43.846;25.952;2024-03-02T03:31:51;14.27;;;6.10;;
67065;SDS011;53978;43.846;25.952;2024-03-02T03:34:21;9.75;;;5.32;;
67065;SDS011;53978;43.846;25.952;2024-03-02T03:36:48;12.48;;;6.57;;
67065;SDS011;53978;43.846;25.952;2024-03-02T03:39:15;16.92;;;6.53;;
67065;SDS011;53978;43.846;25.952;2024-03-02T03:41:42;11.15;;;7.50;;
67065;SDS011;53978;43.846;25.952;2024-03-02T03:44:07;14.65;;;7.93;;
67065;SDS011;53978;43.846;25.952;2024-03-02T03:46:33;17.27;;;7.70;;
67065;SDS011;53978;43.846;25.952;2024-03-02T03:48:59;10.88;;;6.30;;
67065;SDS011;53978;43.846;25.952;2024-03-02T03:51:24;10.65;;;5.82;;
67065;SDS011;53978;43.846;25.952;2024-03-02T03:53:51;12.68;;;6.95;;
67065;SDS011;53978;43.846;25.952;2024-03-02T03:56:16;13.52;;;6.53;;
67065;SDS011;53978;43.846;25.952;2024-03-02T03:58:42;15.55;;;7.18;;
67065;SDS011;53978;43.846;25.952;2024-03-02T04:01:09;15.40;;;6.55;;
67065;SDS011;53978;43.846;25.952;2024-03-02T04:03:38;17.70;;;6.38;;
67065;SDS011;53978;43.846;25.952;2024-03-02T04:06:03;14.50;;;6.05;;
67065;SDS011;53978;43.846;25.952;2024-03-02T04:08:29;11.48;;;5.45;;
67065;SDS011;53978;43.846;25.952;2024-03-02T04:10:55;8.95;;;4.80;;
67065;SDS011;53978;43.846;25.952;2024-03-02T04:13:21;10.95;;;4.68;;
67065;SDS011;53978;43.846;25.952;2024-03-02T04:15:47;7.20;;;4.07;;
67065;SDS011;53978;43.846;25.952;2024-03-02T04:18:12;9.98;;;5.13;;
67065;SDS011;53978;43.846;25.952;2024-03-02T04:20:38;9.80;;;4.30;;
67065;SDS011;53978;43.846;25.952;2024-03-02T04:23:03;8.68;;;4.75;;
67065;SDS011;53978;43.846;25.952;2024-03-02T04:25:29;7.35;;;3.95;;
67065;SDS011;53978;43.846;25.952;2024-03-02T04:27:54;7.85;;;3.80;;
67065;SDS011;53978;43.846;25.952;2024-03-02T04:30:19;9.75;;;3.35;;
67065;SDS011;53978;43.846;25.952;2024-03-02T04:32:45;6.93;;;3.97;;
67065;SDS011;53978;43.846;25.952;2024-03-02T04:35:14;7.40;;;4.20;;
67065;SDS011;53978;43.846;25.952;2024-03-02T04:37:39;8.60;;;3.95;;
67065;SDS011;53978;43.846;25.952;2024-03-02T04:40:05;8.68;;;3.30;;
67065;SDS011;53978;43.846;25.952;2024-03-02T04:42:34;6.60;;;3.58;;
67065;SDS011;53978;43.846;25.952;2024-03-02T04:45:00;8.18;;;3.55;;
67065;SDS011;53978;43.846;25.952;2024-03-02T04:47:26;7.70;;;3.80;;
67065;SDS011;53978;43.846;25.952;2024-03-02T04:49:56;6.97;;;3.50;;
67065;SDS011;53978;43.846;25.952;2024-03-02T04:52:22;4.53;;;2.85;;
67065;SDS011;53978;43.846;25.952;2024-03-02T04:54:48;9.32;;;3.45;;
67065;SDS011;53978;43.846;25.952;2024-03-02T04:57:41;5.72;;;2.55;;
67065;SDS011;53978;43.846;25.952;2024-03-02T05:00:07;4.05;;;3.33;;
67065;SDS011;53978;43.846;25.952;2024-03-02T05:02:34;8.20;;;3.03;;
67065;SDS011;53978;43.846;25.952;2024-03-02T05:05:02;4.90;;;3.20;;
67065;SDS011;53978;43.846;25.952;2024-03-02T05:07:28;6.38;;;3.08;;
67065;SDS011;53978;43.846;25.952;2024-03-02T05:09:54;8.55;;;2.95;;
67065;SDS011;53978;43.846;25.952;2024-03-02T05:12:19;10.43;;;3.92;;
67065;SDS011;53978;43.846;25.952;2024-03-02T05:15:08;4.82;;;3.00;;
67065;SDS011;53978;43.846;25.952;2024-03-02T05:17:37;7.70;;;3.42;;
67065;SDS011;53978;43.846;25.952;2024-03-02T05:20:04;9.20;;;3.90;;
67065;SDS011;53978;43.846;25.952;2024-03-02T05:22:30;10.18;;;4.55;;
67065;SDS011;53978;43.846;25.952;2024-03-02T05:24:56;9.48;;;4.43;;
67065;SDS011;53978;43.846;25.952;2024-03-02T05:27:24;7.65;;;3.08;;
67065;SDS011;53978;43.846;25.952;2024-03-02T05:29:53;6.82;;;3.67;;
67065;SDS011;53978;43.846;25.952;2024-03-02T05:32:19;7.20;;;4.25;;
67065;SDS011;53978;43.846;25.952;2024-03-02T05:34:45;9.52;;;4.47;;
67065;SDS011;53978;43.846;25.952;2024-03-02T05:37:12;9.15;;;3.55;;
67065;SDS011;53978;43.846;25.952;2024-03-02T05:39:39;5.55;;;3.33;;
67065;SDS011;53978;43.846;25.952;2024-03-02T05:42:08;12.07;;;4.55;;
67065;SDS011;53978;43.846;25.952;2024-03-02T05:44:34;10.15;;;3.85;;
67065;SDS011;53978;43.846;25.952;2024-03-02T05:47:00;8.02;;;3.65;;
67065;SDS011;53978;43.846;25.952;2024-03-02T05:49:27;8.57;;;4.13;;
67065;SDS011;53978;43.846;25.952;2024-03-02T05:51:52;11.57;;;5.07;;
67065;SDS011;53978;43.846;25.952;2024-03-02T05:54:17;7.70;;;4.22;;
67065;SDS011;53978;43.846;25.952;2024-03-02T05:56:43;12.82;;;5.00;;
67065;SDS011;53978;43.846;25.952;2024-03-02T05:59:09;13.60;;;6.47;;
67065;SDS011;53978;43.846;25.952;2024-03-02T06:01:50;15.18;;;6.03;;
67065;SDS011;53978;43.846;25.952;2024-03-02T06:04:16;12.70;;;5.85;;
67065;SDS011;53978;43.846;25.952;2024-03-02T06:06:42;12.63;;;5.65;;
67065;SDS011;53978;43.846;25.952;2024-03-02T06:09:09;14.05;;;6.50;;
67065;SDS011;53978;43.846;25.952;2024-03-02T06:11:40;10.35;;;5.97;;
67065;SDS011;53978;43.846;25.952;2024-03-02T06:14:07;9.55;;;5.70;;
67065;SDS011;53978;43.846;25.952;2024-03-02T06:16:33;17.83;;;6.00;;
67065;SDS011;53978;43.846;25.952;2024-03-02T06:18:59;10.40;;;5.07;;
67065;SDS011;53978;43.846;25.952;2024-03-02T06:21:27;9.63;;;4.68;;
67065;SDS011;53978;43.846;25.952;2024-03-02T06:23:52;12.68;;;5.72;;
67065;SDS011;53978;43.846;25.952;2024-03-02T06:26:18;8.60;;;5.40;;
67065;SDS011;53978;43.846;25.952;2024-03-02T06:28:46;12.82;;;6.40;;
67065;SDS011;53978;43.846;25.952;2024-03-02T06:31:11;11.88;;;6.28;;
67065;SDS011;53978;43.846;25.952;2024-03-02T06:33:39;10.45;;;5.88;;
67065;SDS011;53978;43.846;25.952;2024-03-02T06:36:07;11.25;;;5.97;;
67065;SDS011;53978;43.846;25.952;2024-03-02T06:38:36;14.63;;;5.80;;
67065;SDS011;53978;43.846;25.952;2024-03-02T06:41:02;21.70;;;5.85;;
67065;SDS011;53978;43.846;25.952;2024-03-02T06:43:28;10.30;;;4.53;;
67065;SDS011;53978;43.846;25.952;2024-03-02T06:45:53;8.65;;;4.47;;
67065;SDS011;53978;43.846;25.952;2024-03-02T06:48:19;10.00;;;5.03;;
67065;SDS011;53978;43.846;25.952;2024-03-02T06:50:57;7.65;;;4.53;;
67065;SDS011;53978;43.846;25.952;2024-03-02T06:53:29;7.30;;;4.35;;
67065;SDS011;53978;43.846;25.952;2024-03-02T06:55:56;7.60;;;4.15;;
67065;SDS011;53978;43.846;25.952;2024-03-02T06:58:24;12.80;;;5.22;;
67065;SDS011;53978;43.846;25.952;2024-03-02T07:00:58;8.98;;;5.13;;
67065;SDS011;53978;43.846;25.952;2024-03-02T07:03:38;11.07;;;5.50;;
67065;SDS011;53978;43.846;25.952;2024-03-02T07:06:13;10.85;;;5.68;;
67065;SDS011;53978;43.846;25.952;2024-03-02T07:11:33;12.40;;;4.70;;
67065;SDS011;53978;43.846;25.952;2024-03-02T07:13:59;12.20;;;5.60;;
67065;SDS011;53978;43.846;25.952;2024-03-02T07:16:25;11.10;;;5.43;;
67065;SDS011;53978;43.846;25.952;2024-03-02T07:18:55;9.93;;;4.90;;
67065;SDS011;53978;43.846;25.952;2024-03-02T07:21:22;9.52;;;5.10;;
67065;SDS011;53978;43.846;25.952;2024-03-02T07:23:51;8.68;;;4.65;;
67065;SDS011;53978;43.846;25.952;2024-03-02T07:26:23;10.00;;;5.35;;
67065;SDS011;53978;43.846;25.952;2024-03-02T07:29:20;8.82;;;4.90;;
67065;SDS011;53978;43.846;25.952;2024-03-02T07:31:46;14.75;;;5.38;;
67065;SDS011;53978;43.846;25.952;2024-03-02T07:34:18;11.07;;;5.10;;
67065;SDS011;53978;43.846;25.952;2024-03-02T07:36:50;17.50;;;6.05;;
67065;SDS011;53978;43.846;25.952;2024-03-02T07:42:16;9.32;;;5.32;;
67065;SDS011;53978;43.846;25.952;2024-03-02T07:45:04;14.30;;;5.53;;
67065;SDS011;53978;43.846;25.952;2024-03-02T07:47:30;7.28;;;4.90;;
67065;SDS011;53978;43.846;25.952;2024-03-02T07:49:57;11.88;;;5.40;;
67065;SDS011;53978;43.846;25.952;2024-03-02T07:52:27;9.57;;;5.30;;
67065;SDS011;53978;43.846;25.952;2024-03-02T07:54:53;9.52;;;5.05;;
67065;SDS011;53978;43.846;25.952;2024-03-02T07:57:19;9.00;;;5.38;;
67065;SDS011;53978;43.846;25.952;2024-03-02T07:59:47;10.40;;;5.25;;
67065;SDS011;53978;43.846;25.952;2024-03-02T08:02:24;11.05;;;5.22;;
67065;SDS011;53978;43.846;25.952;2024-03-02T08:07:15;6.63;;;4.10;;
67065;SDS011;53978;43.846;25.952;2024-03-02T08:09:40;11.20;;;4.03;;
67065;SDS011;53978;43.846;25.952;2024-03-02T08:12:07;11.38;;;5.60;;
67065;SDS011;53978;43.846;25.952;2024-03-02T08:14:36;9.45;;;5.35;;
67065;SDS011;53978;43.846;25.952;2024-03-02T08:17:01;13.98;;;5.80;;
67065;SDS011;53978;43.846;25.952;2024-03-02T08:19:27;12.95;;;5.05;;
67065;SDS011;53978;43.846;25.952;2024-03-02T08:21:52;14.95;;;5.35;;
67065;SDS011;53978;43.846;25.952;2024-03-02T08:24:18;10.68;;;5.45;;
67065;SDS011;53978;43.846;25.952;2024-03-02T08:26:43;10.60;;;5.00;;
67065;SDS011;53978;43.846;25.952;2024-03-02T08:29:09;8.52;;;5.38;;
67065;SDS011;53978;43.846;25.952;2024-03-02T08:31:43;10.65;;;4.75;;
67065;SDS011;53978;43.846;25.952;2024-03-02T08:34:08;9.55;;;5.45;;
67065;SDS011;53978;43.846;25.952;2024-03-02T08:36:36;10.93;;;5.13;;
67065;SDS011;53978;43.846;25.952;2024-03-02T08:39:04;12.27;;;5.47;;
67065;SDS011;53978;43.846;25.952;2024-03-02T08:44:47;11.52;;;4.88;;
67065;SDS011;53978;43.846;25.952;2024-03-02T08:47:17;16.80;;;4.95;;
67065;SDS011;53978;43.846;25.952;2024-03-02T08:49:42;14.38;;;5.43;;
67065;SDS011;53978;43.846;25.952;2024-03-02T08:52:09;10.35;;;5.57;;
67065;SDS011;53978;43.846;25.952;2024-03-02T08:54:35;8.98;;;4.75;;
67065;SDS011;53978;43.846;25.952;2024-03-02T08:57:01;14.32;;;5.00;;
67065;SDS011;53978;43.846;25.952;2024-03-02T08:59:28;7.35;;;4.28;;
67065;SDS011;53978;43.846;25.952;2024-03-02T09:01:54;7.63;;;4.53;;
67065;SDS011;53978;43.846;25.952;2024-03-02T09:04:31;10.00;;;5.10;;
67065;SDS011;53978;43.846;25.952;2024-03-02T09:13:26;10.17;;;5.53;;
67065;SDS011;53978;43.846;25.952;2024-03-02T09:16:00;10.60;;;4.53;;
67065;SDS011;53978;43.846;25.952;2024-03-02T09:18:26;14.27;;;4.80;;
67065;SDS011;53978;43.846;25.952;2024-03-02T09:20:51;9.52;;;4.95;;
67065;SDS011;53978;43.846;25.952;2024-03-02T09:23:17;8.55;;;4.22;;
67065;SDS011;53978;43.846;25.952;2024-03-02T09:25:43;8.32;;;4.38;;
67065;SDS011;53978;43.846;25.952;2024-03-02T09:28:09;11.88;;;5.32;;
67065;SDS011;53978;43.846;25.952;2024-03-02T09:30:37;11.77;;;4.68;;
67065;SDS011;53978;43.846;25.952;2024-03-02T09:33:03;11.90;;;5.35;;
67065;SDS011;53978;43.846;25.952;2024-03-02T09:35:32;12.85;;;5.50;;
67065;SDS011;53978;43.846;25.952;2024-03-02T09:37:57;9.73;;;5.35;;
67065;SDS011;53978;43.846;25.952;2024-03-02T09:40:22;10.18;;;5.38;;
67065;SDS011;53978;43.846;25.952;2024-03-02T09:42:49;9.13;;;5.15;;
67065;SDS011;53978;43.846;25.952;2024-03-02T09:45:26;11.57;;;5.68;;
67065;SDS011;53978;43.846;25.952;2024-03-02T09:47:52;10.13;;;5.32;;
67065;SDS011;53978;43.846;25.952;2024-03-02T09:50:41;14.77;;;6.28;;
67065;SDS011;53978;43.846;25.952;2024-03-02T09:53:08;7.65;;;5.40;;
67065;SDS011;53978;43.846;25.952;2024-03-02T09:55:33;9.35;;;4.82;;
67065;SDS011;53978;43.846;25.952;2024-03-02T09:57:59;11.93;;;5.78;;
67065;SDS011;53978;43.846;25.952;2024-03-02T10:00:24;12.25;;;5.68;;
67065;SDS011;53978;43.846;25.952;2024-03-02T10:02:52;9.00;;;5.07;;
67065;SDS011;53978;43.846;25.952;2024-03-02T10:05:27;11.90;;;5.65;;
67065;SDS011;53978;43.846;25.952;2024-03-02T10:08:06;9.70;;;5.38;;
67065;SDS011;53978;43.846;25.952;2024-03-02T10:10:40;10.23;;;4.88;;
67065;SDS011;53978;43.846;25.952;2024-03-02T10:13:17;10.55;;;5.57;;
67065;SDS011;53978;43.846;25.952;2024-03-02T10:15:47;11.35;;;5.47;;
67065;SDS011;53978;43.846;25.952;2024-03-02T10:18:14;11.55;;;5.65;;
67065;SDS011;53978;43.846;25.952;2024-03-02T10:20:53;9.95;;;5.32;;
67065;SDS011;53978;43.846;25.952;2024-03-02T10:23:19;10.20;;;6.05;;
67065;SDS011;53978;43.846;25.952;2024-03-02T10:25:45;10.57;;;5.93;;
67065;SDS011;53978;43.846;25.952;2024-03-02T10:28:13;14.32;;;7.07;;
67065;SDS011;53978;43.846;25.952;2024-03-02T10:30:41;15.40;;;6.97;;
67065;SDS011;53978;43.846;25.952;2024-03-02T10:33:06;12.05;;;6.28;;
67065;SDS011;53978;43.846;25.952;2024-03-02T10:35:32;13.18;;;5.95;;
67065;SDS011;53978;43.846;25.952;2024-03-02T10:38:01;10.88;;;6.30;;
67065;SDS011;53978;43.846;25.952;2024-03-02T10:40:31;11.02;;;5.75;;
67065;SDS011;53978;43.846;25.952;2024-03-02T10:42:57;12.70;;;5.40;;
67065;SDS011;53978;43.846;25.952;2024-03-02T10:45:27;11.88;;;5.10;;
67065;SDS011;53978;43.846;25.952;2024-03-02T10:47:55;12.05;;;6.35;;
67065;SDS011;53978;43.846;25.952;2024-03-02T10:50:21;7.65;;;5.65;;
67065;SDS011;53978;43.846;25.952;2024-03-02T10:52:50;11.15;;;6.18;;
67065;SDS011;53978;43.846;25.952;2024-03-02T10:55:15;12.23;;;6.45;;
67065;SDS011;53978;43.846;25.952;2024-03-02T11:00:08;15.02;;;6.28;;
67065;SDS011;53978;43.846;25.952;2024-03-02T11:02:44;18.17;;;6.70;;
67065;SDS011;53978;43.846;25.952;2024-03-02T11:05:16;8.82;;;5.93;;
67065;SDS011;53978;43.846;25.952;2024-03-02T11:07:49;10.40;;;5.75;;
67065;SDS011;53978;43.846;25.952;2024-03-02T11:10:15;12.50;;;6.05;;
67065;SDS011;53978;43.846;25.952;2024-03-02T11:12:53;10.13;;;5.63;;
67065;SDS011;53978;43.846;25.952;2024-03-02T11:15:27;12.43;;;6.30;;
67065;SDS011;53978;43.846;25.952;2024-03-02T11:17:52;12.55;;;5.72;;
67065;SDS011;53978;43.846;25.952;2024-03-02T11:20:18;12.38;;;6.28;;
67065;SDS011;53978;43.846;25.952;2024-03-02T11:22:45;10.95;;;5.90;;
67065;SDS011;53978;43.846;25.952;2024-03-02T11:25:25;11.20;;;6.05;;
67065;SDS011;53978;43.846;25.952;2024-03-02T11:33:01;12.00;;;6.75;;
67065;SDS011;53978;43.846;25.952;2024-03-02T11:35:36;7.03;;;5.40;;
67065;SDS011;53978;43.846;25.952;2024-03-02T11:38:12;10.75;;;6.30;;
67065;SDS011;53978;43.846;25.952;2024-03-02T11:40:40;9.40;;;6.07;;
67065;SDS011;53978;43.846;25.952;2024-03-02T11:43:06;13.52;;;6.63;;
67065;SDS011;53978;43.846;25.952;2024-03-02T11:45:36;11.43;;;5.80;;
67065;SDS011;53978;43.846;25.952;2024-03-02T11:48:06;11.48;;;6.07;;
67065;SDS011;53978;43.846;25.952;2024-03-02T11:50:41;10.07;;;5.82;;
67065;SDS011;53978;43.846;25.952;2024-03-02T11:53:14;10.25;;;6.20;;
67065;SDS011;53978;43.846;25.952;2024-03-02T11:55:40;13.82;;;5.57;;
67065;SDS011;53978;43.846;25.952;2024-03-02T11:58:07;10.00;;;5.85;;
67065;SDS011;53978;43.846;25.952;2024-03-02T12:00:37;11.93;;;5.38;;
67065;SDS011;53978;43.846;25.952;2024-03-02T12:03:06;13.82;;;6.15;;
67065;SDS011;53978;43.846;25.952;2024-03-02T12:05:33;11.18;;;6.65;;
67065;SDS011;53978;43.846;25.952;2024-03-02T12:08:00;8.50;;;5.65;;
67065;SDS011;53978;43.846;25.952;2024-03-02T12:10:31;10.18;;;5.35;;
67065;SDS011;53978;43.846;25.952;2024-03-02T12:13:03;12.15;;;5.90;;
67065;SDS011;53978;43.846;25.952;2024-03-02T12:15:34;10.00;;;5.47;;
67065;SDS011;53978;43.846;25.952;2024-03-02T12:18:04;12.68;;;5.82;;
67065;SDS011;53978;43.846;25.952;2024-03-02T12:20:33;9.90;;;5.75;;
67065;SDS011;53978;43.846;25.952;2024-03-02T12:23:00;10.35;;;6.47;;
67065;SDS011;53978;43.846;25.952;2024-03-02T12:25:27;9.38;;;5.82;;
67065;SDS011;53978;43.846;25.952;2024-03-02T12:27:54;10.07;;;6.07;;
67065;SDS011;53978;43.846;25.952;2024-03-02T12:30:21;17.52;;;6.07;;
67065;SDS011;53978;43.846;25.952;2024-03-02T12:32:50;9.88;;;5.95;;
67065;SDS011;53978;43.846;25.952;2024-03-02T12:35:17;10.90;;;5.50;;
67065;SDS011;53978;43.846;25.952;2024-03-02T12:37:47;11.25;;;5.82;;
67065;SDS011;53978;43.846;25.952;2024-03-02T12:40:13;9.70;;;5.68;;
67065;SDS011;53978;43.846;25.952;2024-03-02T12:42:40;10.82;;;6.25;;
67065;SDS011;53978;43.846;25.952;2024-03-02T12:45:07;10.75;;;6.57;;
67065;SDS011;53978;43.846;25.952;2024-03-02T12:47:34;10.18;;;6.13;;
67065;SDS011;53978;43.846;25.952;2024-03-02T12:50:03;9.52;;;5.93;;
67065;SDS011;53978;43.846;25.952;2024-03-02T12:52:29;10.63;;;6.45;;
67065;SDS011;53978;43.846;25.952;2024-03-02T12:54:55;9.05;;;5.75;;
67065;SDS011;53978;43.846;25.952;2024-03-02T12:57:26;10.68;;;6.22;;
67065;SDS011;53978;43.846;25.952;2024-03-02T12:59:54;9.43;;;6.15;;
67065;SDS011;53978;43.846;25.952;2024-03-02T13:02:23;9.57;;;5.72;;
67065;SDS011;53978;43.846;25.952;2024-03-02T13:04:54;8.98;;;5.82;;
67065;SDS011;53978;43.846;25.952;2024-03-02T13:07:20;12.88;;;6.13;;
67065;SDS011;53978;43.846;25.952;2024-03-02T13:09:48;12.30;;;6.00;;
67065;SDS011;53978;43.846;25.952;2024-03-02T13:12:19;14.02;;;5.20;;
67065;SDS011;53978;43.846;25.952;2024-03-02T13:14:49;11.55;;;5.55;;
67065;SDS011;53978;43.846;25.952;2024-03-02T13:17:18;15.40;;;5.68;;
67065;SDS011;53978;43.846;25.952;2024-03-02T13:19:51;11.20;;;5.75;;
67065;SDS011;53978;43.846;25.952;2024-03-02T13:22:26;12.93;;;5.65;;
67065;SDS011;53978;43.846;25.952;2024-03-02T13:24:52;11.63;;;5.63;;
67065;SDS011;53978;43.846;25.952;2024-03-02T13:27:22;10.10;;;5.93;;
67065;SDS011;53978;43.846;25.952;2024-03-02T13:29:48;9.00;;;5.07;;
67065;SDS011;53978;43.846;25.952;2024-03-02T13:32:15;11.90;;;6.10;;
67065;SDS011;53978;43.846;25.952;2024-03-02T13:34:42;9.05;;;5.28;;
67065;SDS011;53978;43.846;25.952;2024-03-02T13:37:08;12.45;;;5.80;;
67065;SDS011;53978;43.846;25.952;2024-03-02T13:39:36;9.80;;;5.55;;
67065;SDS011;53978;43.846;25.952;2024-03-02T13:42:10;8.68;;;4.75;;
67065;SDS011;53978;43.846;25.952;2024-03-02T13:44:42;10.05;;;5.70;;
67065;SDS011;53978;43.846;25.952;2024-03-02T13:47:10;12.95;;;5.32;;
67065;SDS011;53978;43.846;25.952;2024-03-02T13:49:42;9.20;;;5.53;;
67065;SDS011;53978;43.846;25.952;2024-03-02T13:54:39;5.75;;;3.67;;
67065;SDS011;53978;43.846;25.952;2024-03-02T13:57:07;9.30;;;5.85;;
67065;SDS011;53978;43.846;25.952;2024-03-02T13:59:33;12.07;;;6.15;;
67065;SDS011;53978;43.846;25.952;2024-03-02T14:02:07;13.07;;;6.15;;
67065;SDS011;53978;43.846;25.952;2024-03-02T14:04:34;10.18;;;5.07;;
67065;SDS011;53978;43.846;25.952;2024-03-02T14:07:14;8.18;;;5.13;;
67065;SDS011;53978;43.846;25.952;2024-03-02T14:09:40;10.68;;;6.00;;
67065;SDS011;53978;43.846;25.952;2024-03-02T14:12:05;8.95;;;5.20;;
67065;SDS011;53978;43.846;25.952;2024-03-02T14:14:32;12.07;;;5.75;;
67065;SDS011;53978;43.846;25.952;2024-03-02T14:16:58;9.68;;;5.32;;
67065;SDS011;53978;43.846;25.952;2024-03-02T14:19:28;11.63;;;6.07;;
67065;SDS011;53978;43.846;25.952;2024-03-02T14:21:54;10.23;;;5.53;;
67065;SDS011;53978;43.846;25.952;2024-03-02T14:24:20;12.90;;;6.15;;
67065;SDS011;53978;43.846;25.952;2024-03-02T14:26:54;8.02;;;4.68;;
67065;SDS011;53978;43.846;25.952;2024-03-02T14:29:19;9.88;;;4.72;;
67065;SDS011;53978;43.846;25.952;2024-03-02T14:31:45;9.30;;;4.90;;
67065;SDS011;53978;43.846;25.952;2024-03-02T14:34:13;17.20;;;6.18;;
67065;SDS011;53978;43.846;25.952;2024-03-02T14:36:39;10.55;;;5.65;;
67065;SDS011;53978;43.846;25.952;2024-03-02T14:39:06;13.10;;;5.55;;
67065;SDS011;53978;43.846;25.952;2024-03-02T14:41:35;6.85;;;4.63;;
67065;SDS011;53978;43.846;25.952;2024-03-02T14:44:03;7.60;;;5.07;;
67065;SDS011;53978;43.846;25.952;2024-03-02T14:46:28;9.68;;;4.95;;
67065;SDS011;53978;43.846;25.952;2024-03-02T14:48:55;12.80;;;5.47;;
67065;SDS011;53978;43.846;25.952;2024-03-02T14:51:25;11.32;;;5.38;;
67065;SDS011;53978;43.846;25.952;2024-03-02T14:53:50;12.13;;;5.00;;
67065;SDS011;53978;43.846;25.952;2024-03-02T14:56:16;9.65;;;5.00;;
67065;SDS011;53978;43.846;25.952;2024-03-02T14:58:41;8.45;;;4.00;;
67065;SDS011;53978;43.846;25.952;2024-03-02T15:01:07;7.10;;;4.57;;
67065;SDS011;53978;43.846;25.952;2024-03-02T15:03:34;9.48;;;4.43;;